Time;durP1;ratioP1;P1;durP2;ratioP2;P2;SDS_P1;SDS_P2;PMS_P1;PMS_P2;Temp;Humidity;BMP_temperature;BMP_pressure;BME280_temperature;BME280_humidity;BME280_pressure;Samples;Min_cycle;Max_cycle;Signal;HPM_P1;HPM_P2
2021/09/28 00:00:06;;;;;;;;;18.75;16.25;;;;;15.63;78.98;101974.50;5066322;27;45163;-58
2021/09/28 00:02:31;;;;;;;;;21.50;19.00;;;;;15.58;79.11;101974.56;5079133;28;45702;-58
2021/09/28 00:04:56;;;;;;;;;24.25;19.25;;;;;15.55;79.62;101974.66;5079344;27;45238;-58
2021/09/28 00:07:22;;;;;;;;;31.50;26.00;;;;;15.53;79.75;101977.31;5082820;28;45227;-59
2021/09/28 00:09:47;;;;;;;;;34.50;26.25;;;;;15.50;79.96;101982.66;5098519;27;46381;-59
2021/09/28 00:12:13;;;;;;;;;59.75;46.00;;;;;15.47;80.16;101980.13;5082730;27;45318;-58
2021/09/28 00:14:39;;;;;;;;;71.50;53.75;;;;;15.45;80.72;101981.94;5069455;27;45779;-59
2021/09/28 00:17:04;;;;;;;;;78.00;58.00;;;;;15.40;80.72;101982.94;5064424;28;45334;-59
2021/09/28 00:19:30;;;;;;;;;75.50;57.25;;;;;15.41;80.87;101992.50;5074614;28;46230;-58
2021/09/28 00:21:55;;;;;;;;;74.75;56.25;;;;;15.39;80.86;101989.94;5082626;27;45358;-58
2021/09/28 00:24:20;;;;;;;;;70.25;53.00;;;;;15.39;81.21;101984.69;5082586;27;45488;-58
2021/09/28 00:26:46;;;;;;;;;71.75;54.25;;;;;15.39;81.26;101997.78;5082672;27;45302;-58
2021/09/28 00:29:11;;;;;;;;;69.00;53.50;;;;;15.39;81.17;101996.94;5082267;27;46383;-59
2021/09/28 00:31:37;;;;;;;;;67.75;53.00;;;;;15.38;80.92;101993.47;5069052;28;45327;-61
2021/09/28 00:34:02;;;;;;;;;69.25;52.25;;;;;15.40;81.39;101996.03;5082146;28;45297;-59
2021/09/28 00:36:28;;;;;;;;;64.25;49.25;;;;;15.39;81.52;102003.03;5082154;27;45328;-59
2021/09/28 00:38:53;;;;;;;;;60.75;46.75;;;;;15.43;81.50;102009.94;5082199;27;46205;-60
2021/09/28 00:41:19;;;;;;;;;60.75;47.75;;;;;15.46;81.67;102006.38;5082386;27;45343;-60
2021/09/28 00:43:50;;;;;;;;;48.25;39.50;;;;;15.50;81.30;102003.63;5081393;27;45189;-60
2021/09/28 00:46:16;;;;;;;;;48.50;36.50;;;;;15.52;80.99;102003.56;5080719;27;45331;-61
2021/09/28 00:48:42;;;;;;;;;39.25;32.25;;;;;15.52;80.81;102003.56;5082078;27;46346;-61
2021/09/28 00:51:10;;;;;;;;;47.50;37.00;;;;;15.49;80.99;101999.28;5081652;28;45260;-60
2021/09/28 00:53:38;;;;;;;;;43.00;35.00;;;;;15.45;81.60;101999.41;5081606;27;47236;-60
2021/09/28 00:56:06;;;;;;;;;35.50;30.50;;;;;15.40;81.45;101994.28;5081635;28;45312;-60
2021/09/28 00:58:33;;;;;;;;;28.50;26.50;;;;;15.36;81.22;101994.41;5080605;28;46153;-60
2021/09/28 01:01:01;;;;;;;;;32.00;28.00;;;;;15.32;81.28;101993.63;5082138;27;45844;-60
2021/09/28 01:03:27;;;;;;;;;28.50;23.25;;;;;15.28;81.32;101989.38;5081066;27;45293;-60
2021/09/28 01:05:53;;;;;;;;;23.75;20.75;;;;;15.28;81.45;101993.78;5069297;28;45283;-60
2021/09/28 01:08:18;;;;;;;;;27.25;23.75;;;;;15.24;81.70;101987.75;5081803;27;45389;-60
2021/09/28 01:10:43;;;;;;;;;31.50;28.50;;;;;15.22;81.70;101986.94;5082087;27;45521;-61
2021/09/28 01:13:09;;;;;;;;;35.50;25.25;;;;;15.18;81.82;101996.63;5081965;27;45387;-61
2021/09/28 01:15:34;;;;;;;;;38.50;30.50;;;;;15.13;82.04;101987.16;5081805;27;45344;-64
2021/09/28 01:18:01;;;;;;;;;33.50;27.50;;;;;15.11;82.13;101992.44;5069124;27;46166;-60
2021/09/28 01:20:27;;;;;;;;;33.50;27.25;;;;;15.05;82.34;101984.78;5081690;27;45774;-60
2021/09/28 01:22:52;;;;;;;;;29.75;25.75;;;;;15.04;82.47;101987.44;5081588;27;45363;-60
2021/09/28 01:25:18;;;;;;;;;28.25;28.00;;;;;15.04;82.25;101984.81;5081711;27;45432;-62
2021/09/28 01:27:43;;;;;;;;;29.50;25.50;;;;;15.00;82.52;101984.00;5081590;27;45471;-60
2021/09/28 01:30:10;;;;;;;;;23.00;20.50;;;;;14.99;82.82;101982.28;5081538;27;45250;-60
2021/09/28 01:32:36;;;;;;;;;25.00;21.00;;;;;15.00;82.37;101991.84;5079782;27;45764;-62
2021/09/28 01:35:03;;;;;;;;;23.75;21.50;;;;;15.00;82.93;101989.25;5069481;28;45298;-60
2021/09/28 01:37:28;;;;;;;;;23.50;20.50;;;;;14.98;83.05;101985.81;5081274;27;45377;-60
2021/09/28 01:39:54;;;;;;;;;20.50;18.00;;;;;14.96;82.54;101992.84;5081421;27;45395;-59
2021/09/28 01:42:19;;;;;;;;;25.25;21.50;;;;;14.93;82.52;101986.84;5081370;27;45390;-60
2021/09/28 01:44:44;;;;;;;;;12.50;9.75;;;;;14.88;82.63;101979.97;5080523;27;45294;-60
2021/09/28 01:47:10;;;;;;;;;21.50;19.50;;;;;14.81;83.06;101973.16;5079487;28;45857;-60
2021/09/28 01:49:35;;;;;;;;;20.50;15.50;;;;;14.74;83.05;101982.06;5080199;28;45382;-61
2021/09/28 01:52:01;;;;;;;;;18.50;16.00;;;;;14.70;83.59;101975.19;5080944;27;45621;-60
2021/09/28 01:54:26;;;;;;;;;17.25;15.50;;;;;14.65;83.40;101969.22;5080811;27;45618;-60
2021/09/28 01:56:52;;;;;;;;;16.00;15.50;;;;;14.60;83.45;101969.31;5080694;27;45309;-60
2021/09/28 01:59:17;;;;;;;;;15.75;15.00;;;;;14.53;83.56;101961.66;5081113;27;45261;-61
2021/09/28 02:01:42;;;;;;;;;20.75;18.50;;;;;14.52;83.80;101968.66;5081048;27;45584;-61
2021/09/28 02:04:08;;;;;;;;;18.00;16.00;;;;;14.50;84.12;101959.97;5080886;27;45309;-60
2021/09/28 02:06:39;;;;;;;;;18.25;14.00;;;;;14.51;84.17;101973.91;5080639;27;45278;-61
2021/09/28 02:09:05;;;;;;;;;18.25;15.25;;;;;14.48;84.10;101967.00;5080993;27;45456;-60
2021/09/28 02:11:31;;;;;;;;;17.25;14.50;;;;;14.46;84.62;101960.09;5080952;27;45272;-60
2021/09/28 02:13:58;;;;;;;;;16.75;16.00;;;;;14.44;84.31;101954.91;5080788;27;45401;-60
2021/09/28 02:16:23;;;;;;;;;16.50;14.50;;;;;14.42;84.63;101951.44;5080526;27;45420;-61
2021/09/28 02:18:48;;;;;;;;;18.75;17.50;;;;;14.43;84.27;101945.34;5068774;27;45271;-61
2021/09/28 02:21:14;;;;;;;;;21.50;15.50;;;;;14.43;84.44;101949.69;5080522;27;45241;-60
2021/09/28 02:23:39;;;;;;;;;17.50;15.50;;;;;14.41;84.41;101957.53;5081046;27;45141;-61
2021/09/28 02:26:04;;;;;;;;;16.00;13.00;;;;;14.39;84.42;101955.84;5080392;27;45369;-61
2021/09/28 02:28:30;;;;;;;;;18.00;16.00;;;;;14.39;84.63;101953.25;5080151;27;45161;-60
2021/09/28 02:30:55;;;;;;;;;15.50;13.25;;;;;14.38;84.91;101949.75;5079987;27;45300;-61
2021/09/28 02:33:20;;;;;;;;;19.00;15.00;;;;;14.36;84.98;101945.47;5080413;27;45203;-60
2021/09/28 02:35:46;;;;;;;;;21.25;16.75;;;;;14.35;85.01;101949.00;5078348;27;45749;-59
2021/09/28 02:38:11;;;;;;;;;21.00;19.25;;;;;14.34;84.95;101937.66;5071756;27;45502;-59
2021/09/28 02:40:37;;;;;;;;;17.25;16.00;;;;;14.33;84.94;101946.41;5076563;27;45334;-60
2021/09/28 02:43:02;;;;;;;;;23.75;22.00;;;;;14.32;84.88;101945.56;5077901;27;45414;-59
2021/09/28 02:45:28;;;;;;;;;17.25;15.25;;;;;14.31;85.04;101938.59;5076569;27;47027;-59
2021/09/28 02:47:53;;;;;;;;;20.50;17.00;;;;;14.27;85.42;101934.34;5078640;28;45278;-59
2021/09/28 02:50:18;;;;;;;;;20.75;16.25;;;;;14.27;85.16;101939.56;5078165;27;45930;-59
2021/09/28 02:52:44;;;;;;;;;16.00;16.00;;;;;14.24;85.12;101933.56;5077413;27;45771;-60
2021/09/28 02:55:09;;;;;;;;;14.75;12.00;;;;;14.23;85.36;101930.09;5077739;27;46271;-61
2021/09/28 02:57:35;;;;;;;;;17.50;14.00;;;;;14.24;85.21;101925.72;5077590;27;45409;-59
2021/09/28 03:00:00;;;;;;;;;20.50;18.00;;;;;14.21;85.39;101920.53;5077932;28;45657;-59
2021/09/28 03:02:26;;;;;;;;;21.75;17.25;;;;;14.19;85.29;101923.19;5077269;27;45727;-59
2021/09/28 03:04:51;;;;;;;;;18.50;18.25;;;;;14.18;85.43;101918.84;5077604;27;46024;-58
2021/09/28 03:07:17;;;;;;;;;17.75;15.75;;;;;14.17;85.41;101924.13;5077691;27;45439;-60
2021/09/28 03:09:42;;;;;;;;;20.50;16.50;;;;;14.17;85.62;101918.91;5077933;27;45395;-59
2021/09/28 03:12:08;;;;;;;;;16.25;16.00;;;;;14.13;85.79;101918.13;5077585;27;45387;-61
2021/09/28 03:14:34;;;;;;;;;20.00;16.25;;;;;14.13;85.89;101920.72;5077654;27;45433;-60
2021/09/28 03:16:59;;;;;;;;;17.50;16.00;;;;;14.13;85.44;101922.50;5073095;28;45575;-60
2021/09/28 03:19:25;;;;;;;;;18.75;16.00;;;;;14.13;85.92;101928.56;5071644;28;45471;-60
2021/09/28 03:21:51;;;;;;;;;20.25;14.25;;;;;14.12;85.73;101919.00;5079291;27;45298;-59
2021/09/28 03:24:18;;;;;;;;;22.25;16.25;;;;;14.11;85.82;101922.53;5079928;27;46103;-60
2021/09/28 03:26:43;;;;;;;;;18.00;14.50;;;;;14.13;85.68;101930.31;5080007;27;45474;-60
2021/09/28 03:29:09;;;;;;;;;18.50;16.75;;;;;14.13;85.91;101930.31;5079918;27;45401;-60
2021/09/28 03:31:34;;;;;;;;;15.00;14.75;;;;;14.13;86.05;101933.81;5079789;27;45351;-60
2021/09/28 03:33:59;;;;;;;;;16.00;14.00;;;;;14.12;86.16;101928.59;5079532;27;45341;-60
2021/09/28 03:36:25;;;;;;;;;20.75;18.75;;;;;14.11;86.22;101922.53;5079609;27;45248;-60
2021/09/28 03:38:50;;;;;;;;;16.25;15.00;;;;;14.08;86.19;101922.59;5066221;27;45462;-60
2021/09/28 03:41:15;;;;;;;;;19.25;15.00;;;;;14.09;86.43;101918.22;5081804;27;45305;-60
2021/09/28 03:43:41;;;;;;;;;16.50;15.00;;;;;14.07;86.44;101917.41;5082935;27;45355;-60
2021/09/28 03:46:07;;;;;;;;;17.25;17.00;;;;;14.07;86.52;101910.44;5081672;27;45459;-61
2021/09/28 03:48:32;;;;;;;;;23.50;16.50;;;;;14.03;86.54;101905.31;5083059;27;45463;-60
2021/09/28 03:50:58;;;;;;;;;22.50;17.75;;;;;14.07;86.34;101912.19;5080741;27;45480;-60
2021/09/28 03:53:23;;;;;;;;;21.25;20.00;;;;;14.07;86.06;101907.81;5080070;27;45761;-60
2021/09/28 03:55:50;;;;;;;;;21.50;18.25;;;;;14.07;86.56;101906.94;5078628;28;45420;-60
2021/09/28 03:58:16;;;;;;;;;15.25;14.75;;;;;14.05;86.55;101907.00;5080763;27;45408;-60
2021/09/28 04:00:42;;;;;;;;;26.00;17.75;;;;;14.05;86.78;101904.38;5080144;27;45469;-60
2021/09/28 04:03:08;;;;;;;;;19.50;15.75;;;;;14.07;86.51;101907.81;5080296;27;46383;-59
2021/09/28 04:05:34;;;;;;;;;19.75;18.75;;;;;14.05;86.51;101906.13;5080256;27;45502;-59
2021/09/28 04:08:00;;;;;;;;;16.00;15.75;;;;;14.04;86.77;101907.88;5082391;28;45275;-58
2021/09/28 04:10:25;;;;;;;;;19.00;15.00;;;;;14.04;86.86;101902.66;5080075;27;45604;-58
2021/09/28 04:12:51;;;;;;;;;18.75;16.75;;;;;14.02;86.85;101912.28;5080310;27;45583;-59
2021/09/28 04:15:20;;;;;;;;;20.75;16.00;;;;;14.01;86.70;101918.38;5094487;27;45423;-59
2021/09/28 04:17:46;;;;;;;;;21.50;21.25;;;;;14.01;86.76;101913.16;5069822;27;45448;-59
2021/09/28 04:20:11;;;;;;;;;27.00;20.75;;;;;14.03;86.82;101914.00;5073048;28;45372;-59
2021/09/28 04:22:37;;;;;;;;;23.00;17.25;;;;;14.02;86.42;101922.75;5072048;28;45901;-59
2021/09/28 04:25:04;;;;;;;;;23.75;20.75;;;;;14.02;86.94;101912.28;5082013;27;45211;-60
2021/09/28 04:27:30;;;;;;;;;24.50;21.75;;;;;14.01;86.96;101921.00;5082695;27;45320;-60
2021/09/28 04:29:55;;;;;;;;;19.00;17.25;;;;;14.00;86.86;101921.91;5081984;27;45530;-60
2021/09/28 04:32:20;;;;;;;;;27.00;20.00;;;;;13.99;86.96;101915.81;5082171;27;45393;-60
2021/09/28 04:34:46;;;;;;;;;17.50;15.50;;;;;14.01;86.95;101921.00;5081833;27;45324;-60
2021/09/28 04:37:11;;;;;;;;;20.25;15.75;;;;;14.03;86.78;101921.00;5082582;27;45291;-60
2021/09/28 04:39:37;;;;;;;;;19.75;16.75;;;;;14.05;86.88;101925.28;5068625;27;45638;-60
2021/09/28 04:42:03;;;;;;;;;11.00;8.50;;;;;14.07;87.21;101920.88;5082106;27;47072;-60
2021/09/28 04:44:28;;;;;;;;;17.00;13.00;;;;;14.09;87.16;101916.47;5080947;27;45323;-60
2021/09/28 04:46:53;;;;;;;;;9.25;8.00;;;;;14.13;87.04;101919.88;5081514;27;45401;-60
2021/09/28 04:49:19;;;;;;;;;13.00;12.00;;;;;14.12;86.94;101919.00;5081555;27;45420;-60
2021/09/28 04:51:44;;;;;;;;;20.25;13.75;;;;;14.13;87.36;101915.50;5080861;27;45334;-60
2021/09/28 04:54:09;;;;;;;;;15.50;15.50;;;;;14.17;87.32;101917.13;5081204;27;45250;-60
2021/09/28 04:56:36;;;;;;;;;17.50;14.25;;;;;14.21;87.09;101910.94;5081961;27;45226;-61
2021/09/28 04:59:03;;;;;;;;;15.75;14.00;;;;;14.23;87.01;101911.78;5081552;27;45248;-61
2021/09/28 05:01:28;;;;;;;;;14.50;12.00;;;;;14.19;86.90;101902.28;5081727;28;46284;-68
2021/09/28 05:03:53;;;;;;;;;13.75;11.00;;;;;14.25;86.78;101909.13;5081279;27;45405;-59
2021/09/28 05:06:19;;;;;;;;;11.50;7.25;;;;;14.26;87.27;101916.09;5081663;27;45386;-60
2021/09/28 05:08:44;;;;;;;;;13.00;12.00;;;;;14.22;87.58;101923.16;5080788;27;45277;-60
2021/09/28 05:11:11;;;;;;;;;17.50;16.50;;;;;14.14;87.93;101922.44;5079486;27;46202;-60
2021/09/28 05:13:37;;;;;;;;;20.00;16.00;;;;;14.11;88.06;101921.66;5081049;27;45423;-62
2021/09/28 05:16:02;;;;;;;;;23.00;18.75;;;;;14.07;88.02;101918.28;5080522;27;45361;-63
2021/09/28 05:18:28;;;;;;;;;23.50;16.00;;;;;14.07;87.92;101923.50;5067993;28;45331;-63
2021/09/28 05:20:53;;;;;;;;;21.25;19.00;;;;;14.06;87.58;101923.53;5080542;27;46059;-62
2021/09/28 05:23:18;;;;;;;;;22.25;17.75;;;;;14.04;87.79;101920.09;5080838;27;45248;-61
2021/09/28 05:25:44;;;;;;;;;17.75;13.25;;;;;14.03;88.05;101921.84;5081324;27;45242;-62
2021/09/28 05:28:10;;;;;;;;;18.25;14.50;;;;;14.02;88.10;101927.13;5081147;27;45441;-62
2021/09/28 05:30:35;;;;;;;;;31.00;21.00;;;;;14.01;87.83;101921.00;5081345;28;45328;-63
2021/09/28 05:33:00;;;;;;;;;25.50;21.00;;;;;14.02;88.14;101924.50;5080576;27;45168;-62
2021/09/28 05:35:26;;;;;;;;;24.25;19.25;;;;;14.05;88.49;101925.28;5081100;27;45211;-61
2021/09/28 05:37:52;;;;;;;;;22.75;17.25;;;;;14.06;88.18;101921.78;5080816;27;45213;-67
2021/09/28 05:40:18;;;;;;;;;19.75;16.75;;;;;14.05;87.90;101920.06;5067791;27;46177;-63
2021/09/28 05:42:44;;;;;;;;;26.75;20.00;;;;;14.08;88.31;101916.50;5076389;28;45418;-60
2021/09/28 05:45:10;;;;;;;;;20.75;18.50;;;;;14.11;87.95;101905.97;5078765;27;45328;-62
2021/09/28 05:47:35;;;;;;;;;24.00;20.00;;;;;14.15;88.29;101898.03;5079407;28;45529;-61
2021/09/28 05:50:01;;;;;;;;;23.75;15.25;;;;;14.15;87.97;101903.25;5079943;27;46841;-61
2021/09/28 05:52:26;;;;;;;;;24.50;18.75;;;;;14.15;87.73;101898.03;5080312;27;45525;-59
2021/09/28 05:54:52;;;;;;;;;19.50;18.00;;;;;14.15;87.75;101890.19;5081067;27;45321;-59
2021/09/28 05:57:19;;;;;;;;;26.00;22.25;;;;;14.14;87.59;101885.84;5079342;28;45413;-60
2021/09/28 05:59:46;;;;;;;;;19.50;18.75;;;;;14.15;87.77;101884.09;5080772;27;45362;-59
2021/09/28 06:02:13;;;;;;;;;20.25;14.75;;;;;14.14;88.18;101888.47;5080141;28;45252;-61
2021/09/28 06:04:39;;;;;;;;;25.00;20.00;;;;;14.15;87.72;101892.78;5080493;27;45449;-59
2021/09/28 06:07:04;;;;;;;;;21.00;19.50;;;;;14.18;87.70;101891.84;5080114;28;45394;-59
2021/09/28 06:09:32;;;;;;;;;25.75;21.00;;;;;14.20;88.00;101890.91;5069227;28;46269;-59
2021/09/28 06:11:58;;;;;;;;;23.25;17.50;;;;;14.25;87.76;101902.16;5078035;28;45460;-59
2021/09/28 06:14:23;;;;;;;;;21.50;19.75;;;;;14.28;87.20;101904.69;5080598;27;45264;-61
2021/09/28 06:16:49;;;;;;;;;19.50;17.75;;;;;14.31;87.01;101903.75;5077447;27;45267;-59
2021/09/28 06:19:15;;;;;;;;;19.25;17.25;;;;;14.34;86.97;101903.66;5069777;28;45889;-59
2021/09/28 06:21:41;;;;;;;;;17.25;16.00;;;;;14.36;87.02;101904.50;5077605;28;45489;-59
2021/09/28 06:24:06;;;;;;;;;26.00;19.50;;;;;14.38;87.02;101900.06;5079446;27;45267;-59
2021/09/28 06:26:32;;;;;;;;;22.50;19.00;;;;;14.46;86.74;101906.03;5078100;27;45280;-59
2021/09/28 06:28:57;;;;;;;;;21.00;16.00;;;;;14.51;86.67;101904.16;5079974;27;45532;-59
2021/09/28 06:31:22;;;;;;;;;27.00;18.75;;;;;14.59;86.29;101903.94;5079661;27;45178;-59
2021/09/28 06:33:48;;;;;;;;;23.50;21.00;;;;;14.66;86.35;101897.69;5079363;27;45244;-59
2021/09/28 06:36:13;;;;;;;;;23.25;21.50;;;;;14.70;86.14;101907.16;5077266;27;45542;-59
2021/09/28 06:38:38;;;;;;;;;26.75;23.75;;;;;14.76;85.83;101906.97;5078966;27;45452;-59
2021/09/28 06:41:04;;;;;;;;;26.75;22.50;;;;;14.81;85.76;101906.84;5074679;27;45616;-59
2021/09/28 06:43:29;;;;;;;;;27.00;22.25;;;;;14.86;85.22;101910.25;5079535;28;45374;-59
2021/09/28 06:45:55;;;;;;;;;25.25;19.50;;;;;14.91;84.99;101906.59;5074548;27;45244;-59
2021/09/28 06:48:20;;;;;;;;;27.25;23.00;;;;;14.95;85.17;101914.34;5074816;27;46020;-59
2021/09/28 06:50:46;;;;;;;;;24.00;21.25;;;;;14.99;84.87;101910.75;5067776;27;45381;-59
2021/09/28 06:53:11;;;;;;;;;28.50;23.00;;;;;15.05;84.67;101916.69;5068414;28;45726;-59
2021/09/28 06:55:37;;;;;;;;;23.25;19.50;;;;;15.11;84.62;101908.66;5072651;27;45252;-59
2021/09/28 06:58:04;;;;;;;;;23.50;19.00;;;;;15.10;84.64;101901.72;5063424;28;45355;-59
2021/09/28 07:00:30;;;;;;;;;29.25;24.75;;;;;15.19;84.46;101908.44;5071630;28;45205;-59
2021/09/28 07:02:56;;;;;;;;;24.00;20.00;;;;;15.26;84.29;101906.53;5072540;27;45211;-59
2021/09/28 07:05:21;;;;;;;;;20.75;18.75;;;;;15.32;84.17;101907.19;5068332;28;45208;-59
2021/09/28 07:07:47;;;;;;;;;20.75;18.75;;;;;15.41;83.84;101903.44;5065784;27;46253;-59
2021/09/28 07:10:12;;;;;;;;;20.75;18.25;;;;;15.48;83.57;101902.38;5070778;27;45162;-59
2021/09/28 07:12:37;;;;;;;;;20.25;15.50;;;;;15.55;82.68;101903.06;5072693;28;45717;-59
2021/09/28 07:15:05;;;;;;;;;18.25;16.00;;;;;15.60;82.15;101901.19;5067411;28;45241;-59
2021/09/28 07:17:31;;;;;;;;;22.50;17.50;;;;;15.69;82.64;101893.06;5063412;27;45361;-59
2021/09/28 07:19:56;;;;;;;;;19.00;18.00;;;;;15.79;82.22;101895.34;5067854;28;45425;-59
2021/09/28 07:22:22;;;;;;;;;19.75;19.00;;;;;15.92;81.88;101895.84;5081716;27;45257;-59
2021/09/28 07:24:47;;;;;;;;;31.50;25.50;;;;;16.03;81.75;101906.84;5070734;27;45439;-59
2021/09/28 07:27:12;;;;;;;;;29.25;23.25;;;;;16.18;81.31;101896.75;5072856;28;45306;-59
2021/09/28 07:29:38;;;;;;;;;23.00;21.00;;;;;16.30;80.80;101896.38;5066574;28;45441;-59
2021/09/28 07:32:04;;;;;;;;;27.00;22.50;;;;;16.43;80.18;101900.31;5060994;28;45419;-59
2021/09/28 07:34:31;;;;;;;;;24.25;19.00;;;;;16.55;79.56;101899.03;5070448;27;45343;-59
2021/09/28 07:36:57;;;;;;;;;21.00;19.00;;;;;16.61;78.98;101897.03;5072527;28;46309;-60
2021/09/28 07:39:22;;;;;;;;;21.00;16.75;;;;;16.63;78.58;101887.38;5067573;28;45267;-59
2021/09/28 07:41:48;;;;;;;;;28.50;21.25;;;;;16.70;78.79;101893.31;5066055;27;45221;-59
2021/09/28 07:44:13;;;;;;;;;26.00;20.00;;;;;16.67;78.38;101885.53;5080246;27;45518;-59
2021/09/28 07:46:38;;;;;;;;;27.00;20.50;;;;;16.72;78.68;101887.09;5078275;27;45282;-59
2021/09/28 07:49:04;;;;;;;;;25.75;20.75;;;;;16.76;78.53;101884.34;5078753;27;45219;-59
2021/09/28 07:51:29;;;;;;;;;26.00;24.25;;;;;16.83;78.47;101896.38;5079312;27;45412;-59
2021/09/28 07:53:55;;;;;;;;;23.75;23.50;;;;;16.88;78.10;101892.66;5063443;27;45316;-60
2021/09/28 07:56:21;;;;;;;;;23.75;20.25;;;;;16.94;77.61;101883.69;5067779;27;45652;-59
2021/09/28 07:58:47;;;;;;;;;23.00;18.75;;;;;16.99;77.49;101893.13;5077327;28;45800;-60
2021/09/28 08:01:12;;;;;;;;;18.75;18.00;;;;;17.09;76.85;101895.44;5067406;27;45281;-60
2021/09/28 08:03:38;;;;;;;;;26.25;20.00;;;;;17.17;76.65;101891.59;5072184;28;45309;-60
2021/09/28 08:06:03;;;;;;;;;19.75;15.50;;;;;17.27;75.66;101889.50;5070807;28;46208;-60
2021/09/28 08:08:29;;;;;;;;;22.50;20.25;;;;;17.33;76.08;101890.13;5065392;27;45352;-59
2021/09/28 08:10:55;;;;;;;;;27.00;23.00;;;;;17.37;74.69;101893.50;5067223;27;45219;-60
2021/09/28 08:13:21;;;;;;;;;24.75;21.50;;;;;17.33;75.55;101886.66;5072303;28;45149;-60
2021/09/28 08:15:48;;;;;;;;;28.00;21.00;;;;;17.38;75.01;101889.09;5070972;28;45431;-60
2021/09/28 08:18:14;;;;;;;;;26.75;22.50;;;;;17.41;75.61;101892.47;5059515;27;45250;-60
2021/09/28 08:20:41;;;;;;;;;27.75;24.50;;;;;17.44;75.79;101897.63;5071229;28;45323;-59
2021/09/28 08:23:06;;;;;;;;;31.50;25.75;;;;;17.51;75.42;101900.88;5065543;27;45445;-60
2021/09/28 08:25:47;;;;;;;;;30.75;25.00;;;;;17.59;75.08;101906.69;5066022;27;46168;-59
2021/09/28 08:30:59;;;;;;;;;27.50;18.75;;;;;17.81;73.48;101907.59;5075595;28;45307;-60
2021/09/28 08:33:25;;;;;;;;;34.00;29.75;;;;;17.90;74.40;101909.88;5073049;28;45538;-60
2021/09/28 08:35:50;;;;;;;;;32.25;31.00;;;;;18.03;74.50;101910.28;5068009;27;46094;-59
2021/09/28 08:38:16;;;;;;;;;27.00;20.75;;;;;18.10;73.89;101913.50;5070929;27;45306;-60
2021/09/28 08:40:41;;;;;;;;;33.25;29.50;;;;;18.14;73.37;101900.16;5075372;28;45478;-59
2021/09/28 08:43:08;;;;;;;;;32.50;28.75;;;;;18.17;72.93;101905.28;5073404;28;45410;-60
2021/09/28 08:45:33;;;;;;;;;33.75;24.75;;;;;18.20;71.21;101899.03;5076708;28;45390;-60
2021/09/28 08:47:59;;;;;;;;;37.50;28.50;;;;;18.28;72.34;101906.63;5081423;28;45311;-59
2021/09/28 08:50:24;;;;;;;;;31.00;25.25;;;;;18.35;71.51;101908.94;5081897;27;45243;-59
2021/09/28 08:52:51;;;;;;;;;23.50;18.50;;;;;18.42;71.66;101904.28;5081938;27;45207;-59
2021/09/28 08:55:17;;;;;;;;;22.50;21.00;;;;;18.51;71.14;101904.75;5081066;28;46109;-60
2021/09/28 08:57:42;;;;;;;;;29.50;24.25;;;;;18.63;70.97;101900.78;5081678;27;45211;-59
2021/09/28 09:00:16;;;;;;;;;20.75;19.50;;;;;18.76;70.38;101893.22;5081832;27;45382;-59
2021/09/28 09:02:47;;;;;;;;;20.25;19.25;;;;;18.81;69.48;101897.34;5081855;27;45629;-59
2021/09/28 09:05:16;;;;;;;;;21.50;18.50;;;;;18.93;69.07;101903.88;5081339;27;45402;-61
2021/09/28 09:07:43;;;;;;;;;22.50;18.25;;;;;19.10;68.43;101904.00;5081829;27;45231;-60
2021/09/28 09:10:10;;;;;;;;;25.00;18.00;;;;;19.29;68.07;101898.75;5081852;27;45426;-59
2021/09/28 09:12:40;;;;;;;;;23.25;18.00;;;;;19.38;66.19;101900.09;5081630;27;45525;-60
2021/09/28 09:15:27;;;;;;;;;19.50;14.25;;;;;19.42;66.00;101901.66;5080825;27;45294;-59
2021/09/28 09:17:55;;;;;;;;;12.00;12.00;;;;;19.55;65.00;101907.28;5069808;27;45664;-60
2021/09/28 09:20:32;;;;;;;;;26.75;17.75;;;;;19.71;64.76;101900.34;5081009;28;45255;-60
2021/09/28 09:23:36;;;;;;;;;17.25;13.00;;;;;19.82;64.11;101902.47;5081206;27;45308;-60
2021/09/28 09:26:13;;;;;;;;;11.00;10.25;;;;;19.96;63.07;101900.88;5081329;27;45311;-60
2021/09/28 09:28:49;;;;;;;;;20.75;15.50;;;;;19.95;62.35;101891.25;5081632;27;45389;-60
2021/09/28 09:31:25;;;;;;;;;18.50;14.00;;;;;19.98;57.64;101885.84;5081112;27;45213;-59
2021/09/28 09:34:04;;;;;;;;;16.00;8.50;;;;;19.98;61.44;101888.47;5081492;27;45444;-59
2021/09/28 09:36:29;;;;;;;;;13.00;10.50;;;;;20.13;60.92;101871.03;5079883;28;46562;-59
2021/09/28 09:38:56;;;;;;;;;14.50;11.50;;;;;20.25;58.33;101878.38;5080777;28;45428;-59
2021/09/28 09:41:27;;;;;;;;;8.50;6.75;;;;;20.24;59.20;101871.38;5080650;28;45333;-59
2021/09/28 09:44:07;;;;;;;;;11.25;6.00;;;;;20.19;58.76;101872.50;5080951;27;45404;-60
2021/09/28 09:46:41;;;;;;;;;11.00;5.75;;;;;20.25;59.16;101872.22;5068467;28;46089;-60
2021/09/28 09:49:08;;;;;;;;;11.50;8.50;;;;;20.36;59.34;101861.97;5080505;27;45794;-60
2021/09/28 09:52:08;;;;;;;;;10.50;6.50;;;;;20.42;57.93;101858.19;5081075;27;45304;-59
2021/09/28 09:54:40;;;;;;;;;11.25;6.00;;;;;20.43;57.22;101858.16;5069819;28;45416;-59
2021/09/28 09:57:11;;;;;;;;;5.75;5.75;;;;;20.50;57.12;101846.31;5080603;28;46067;-59
2021/09/28 09:59:38;;;;;;;;;9.25;7.00;;;;;20.62;56.87;101844.81;5080977;27;45251;-60
2021/09/28 10:02:06;;;;;;;;;10.75;4.00;;;;;20.68;56.56;101841.88;5080462;27;45453;-60
2021/09/28 10:04:32;;;;;;;;;7.25;3.75;;;;;20.86;56.48;101843.56;5080644;27;45168;-59
2021/09/28 10:07:06;;;;;;;;;4.75;3.25;;;;;20.90;55.74;101839.81;5080094;27;46249;-59
2021/09/28 10:09:37;;;;;;;;;12.00;7.00;;;;;20.81;54.75;101842.06;5080840;27;45225;-59
2021/09/28 10:12:05;;;;;;;;;2.75;1.75;;;;;20.80;54.49;101845.66;5079829;27;46513;-60
2021/09/28 10:14:35;;;;;;;;;2.75;2.50;;;;;20.99;54.52;101842.88;5078749;28;45782;-60
2021/09/28 10:17:12;;;;;;;;;4.00;2.00;;;;;21.00;54.16;101841.94;5074934;27;46079;-59
2021/09/28 10:19:40;;;;;;;;;6.75;4.75;;;;;21.04;54.37;101832.94;5073088;28;45333;-59
2021/09/28 10:22:06;;;;;;;;;2.00;2.00;;;;;21.02;54.17;101834.78;5080133;28;45256;-59
2021/09/28 10:24:33;;;;;;;;;5.00;3.00;;;;;21.01;53.43;101841.88;5080095;28;45428;-60
2021/09/28 10:26:58;;;;;;;;;1.00;1.00;;;;;21.02;52.58;101845.34;5080369;28;46559;-59
2021/09/28 10:29:51;;;;;;;;;4.00;2.00;;;;;21.03;53.87;101836.53;5079783;28;45456;-59
2021/09/28 10:32:22;;;;;;;;;5.25;4.25;;;;;21.06;52.90;101839.00;5071034;28;45286;-59
2021/09/28 10:35:17;;;;;;;;;4.00;3.00;;;;;20.86;50.68;101843.56;5079279;27;45286;-60
2021/09/28 10:37:42;;;;;;;;;5.00;4.00;;;;;20.77;52.96;101836.09;5079362;27;45334;-60
2021/09/28 10:40:28;;;;;;;;;6.75;4.75;;;;;20.73;53.05;101844.28;5079925;27;45291;-59
2021/09/28 10:42:59;;;;;;;;;8.75;5.25;;;;;20.67;53.02;101845.47;5070941;27;45390;-59
2021/09/28 10:45:30;;;;;;;;;2.00;1.00;;;;;20.62;52.61;101837.78;5078777;27;45313;-59
2021/09/28 10:47:58;;;;;;;;;2.00;0.00;;;;;20.49;50.53;101838.47;5078381;27;46357;-59
2021/09/28 10:50:31;;;;;;;;;1.75;0.00;;;;;20.33;51.29;101841.00;5078397;27;45567;-59
2021/09/28 10:53:27;;;;;;;;;5.00;1.00;;;;;20.21;50.77;101838.97;5079666;27;45362;-60
2021/09/28 10:56:02;;;;;;;;;0.00;0.00;;;;;20.20;51.35;101834.63;5077330;27;45165;-59
2021/09/28 10:58:28;;;;;;;;;2.00;0.25;;;;;20.09;51.08;101839.59;5079672;27;47422;-59
2021/09/28 11:00:53;;;;;;;;;3.00;1.00;;;;;20.00;51.45;101835.63;5079530;27;45358;-60
2021/09/28 11:03:40;;;;;;;;;6.50;2.25;;;;;20.09;52.19;101832.53;5079549;27;45290;-59
2021/09/28 11:06:07;;;;;;;;;2.75;1.75;;;;;20.33;52.62;101826.03;5079273;28;45381;-60
2021/09/28 11:08:36;;;;;;;;;3.75;1.50;;;;;20.49;51.24;101820.00;5079162;27;47081;-60
2021/09/28 11:11:04;;;;;;;;;3.50;2.25;;;;;20.51;51.51;101826.91;5079775;27;45425;-59
2021/09/28 11:13:41;;;;;;;;;4.25;2.75;;;;;20.67;51.23;101816.41;5079603;27;45442;-59